sensor_id;sensor_type;location;lat;lon;timestamp;pressure;altitude;pressure_sealevel;temperature;humidity
65276;BME280;51875;49.994;14.052;2022-11-20T00:00:49;97990.25;;;-2.93;100.00
65276;BME280;51875;49.994;14.052;2022-11-20T00:02:08;97996.44;;;-2.82;100.00
65276;BME280;51875;49.994;14.052;2022-11-20T00:03:23;97997.22;;;-2.86;100.00
65276;BME280;51875;49.994;14.052;2022-11-20T00:04:39;97996.25;;;-2.93;100.00
65276;BME280;51875;49.994;14.052;2022-11-20T00:06:00;97989.41;;;-2.94;100.00
65276;BME280;51875;49.994;14.052;2022-11-20T00:07:15;97992.81;;;-2.93;100.00
65276;BME280;51875;49.994;14.052;2022-11-20T00:08:31;97985.75;;;-3.07;100.00
65276;BME280;51875;49.994;14.052;2022-11-20T00:09:46;97996.22;;;-2.94;100.00
65276;BME280;51875;49.994;14.052;2022-11-20T00:11:13;97997.03;;;-2.95;100.00
65276;BME280;51875;49.994;14.052;2022-11-20T00:12:29;98000.25;;;-3.07;100.00
65276;BME280;51875;49.994;14.052;2022-11-20T00:13:46;97997.59;;;-3.12;100.00
65276;BME280;51875;49.994;14.052;2022-11-20T00:15:03;98000.19;;;-3.10;100.00
65276;BME280;51875;49.994;14.052;2022-11-20T00:16:20;97995.81;;;-3.15;100.00
65276;BME280;51875;49.994;14.052;2022-11-20T00:17:37;98002.50;;;-3.23;100.00
65276;BME280;51875;49.994;14.052;2022-11-20T00:18:53;98001.13;;;-3.07;100.00
65276;BME280;51875;49.994;14.052;2022-11-20T00:20:09;98006.50;;;-2.93;100.00
65276;BME280;51875;49.994;14.052;2022-11-20T00:21:27;98009.00;;;-2.94;100.00
65276;BME280;51875;49.994;14.052;2022-11-20T00:22:43;98002.56;;;-3.20;100.00
65276;BME280;51875;49.994;14.052;2022-11-20T00:23:59;98003.56;;;-3.13;100.00
65276;BME280;51875;49.994;14.052;2022-11-20T00:25:14;98002.75;;;-3.10;100.00
65276;BME280;51875;49.994;14.052;2022-11-20T00:26:30;97999.41;;;-3.06;100.00
65276;BME280;51875;49.994;14.052;2022-11-20T00:27:46;97998.94;;;-2.85;100.00
65276;BME280;51875;49.994;14.052;2022-11-20T00:29:02;97999.94;;;-2.78;100.00
65276;BME280;51875;49.994;14.052;2022-11-20T00:30:18;97998.16;;;-2.81;100.00
65276;BME280;51875;49.994;14.052;2022-11-20T00:31:34;98002.44;;;-2.80;100.00
65276;BME280;51875;49.994;14.052;2022-11-20T00:32:50;98001.66;;;-2.77;100.00
65276;BME280;51875;49.994;14.052;2022-11-20T00:34:05;97996.56;;;-2.74;100.00
65276;BME280;51875;49.994;14.052;2022-11-20T00:35:21;97999.25;;;-2.68;100.00
65276;BME280;51875;49.994;14.052;2022-11-20T00:36:37;98001.78;;;-2.71;100.00
65276;BME280;51875;49.994;14.052;2022-11-20T00:37:52;97999.19;;;-2.73;100.00
65276;BME280;51875;49.994;14.052;2022-11-20T00:39:08;97997.59;;;-2.66;100.00
65276;BME280;51875;49.994;14.052;2022-11-20T00:40:23;98000.19;;;-2.64;100.00
65276;BME280;51875;49.994;14.052;2022-11-20T00:41:39;98000.81;;;-2.78;100.00
65276;BME280;51875;49.994;14.052;2022-11-20T00:42:55;98002.66;;;-2.67;100.00
65276;BME280;51875;49.994;14.052;2022-11-20T00:44:10;98004.47;;;-2.62;100.00
65276;BME280;51875;49.994;14.052;2022-11-20T00:45:26;98002.56;;;-2.74;100.00
65276;BME280;51875;49.994;14.052;2022-11-20T00:46:41;98002.63;;;-2.71;100.00
65276;BME280;51875;49.994;14.052;2022-11-20T00:47:57;98004.34;;;-2.70;100.00
65276;BME280;51875;49.994;14.052;2022-11-20T00:49:13;98008.06;;;-2.53;100.00
65276;BME280;51875;49.994;14.052;2022-11-20T00:50:28;98001.47;;;-2.39;100.00
65276;BME280;51875;49.994;14.052;2022-11-20T00:51:44;97997.38;;;-2.26;100.00
65276;BME280;51875;49.994;14.052;2022-11-20T00:52:59;98006.47;;;-2.45;100.00
65276;BME280;51875;49.994;14.052;2022-11-20T00:54:15;98002.75;;;-2.63;100.00
65276;BME280;51875;49.994;14.052;2022-11-20T00:55:30;98001.22;;;-2.53;100.00
65276;BME280;51875;49.994;14.052;2022-11-20T00:56:46;98001.88;;;-2.65;100.00
65276;BME280;51875;49.994;14.052;2022-11-20T00:58:02;98001.34;;;-2.47;100.00
65276;BME280;51875;49.994;14.052;2022-11-20T00:59:17;97990.44;;;-2.32;100.00
65276;BME280;51875;49.994;14.052;2022-11-20T01:00:33;97993.22;;;-2.19;100.00
65276;BME280;51875;49.994;14.052;2022-11-20T01:01:49;97990.75;;;-2.11;100.00
65276;BME280;51875;49.994;14.052;2022-11-20T01:03:05;97993.41;;;-2.08;100.00
65276;BME280;51875;49.994;14.052;2022-11-20T01:04:20;97996.66;;;-2.19;100.00
65276;BME280;51875;49.994;14.052;2022-11-20T01:05:36;97992.34;;;-2.21;100.00
65276;BME280;51875;49.994;14.052;2022-11-20T01:06:51;98001.38;;;-2.44;100.00
65276;BME280;51875;49.994;14.052;2022-11-20T01:08:07;97993.81;;;-2.36;100.00
65276;BME280;51875;49.994;14.052;2022-11-20T01:09:23;97997.19;;;-2.38;100.00
65276;BME280;51875;49.994;14.052;2022-11-20T01:10:38;97994.53;;;-2.45;100.00
65276;BME280;51875;49.994;14.052;2022-11-20T01:11:54;97999.56;;;-2.51;100.00
65276;BME280;51875;49.994;14.052;2022-11-20T01:13:10;97994.69;;;-2.35;100.00
65276;BME280;51875;49.994;14.052;2022-11-20T01:14:44;97994.06;;;-2.22;100.00
65276;BME280;51875;49.994;14.052;2022-11-20T01:16:30;97998.34;;;-2.19;100.00
65276;BME280;51875;49.994;14.052;2022-11-20T01:17:46;97999.03;;;-2.31;100.00
65276;BME280;51875;49.994;14.052;2022-11-20T01:19:04;97998.56;;;-2.59;100.00
65276;BME280;51875;49.994;14.052;2022-11-20T01:20:20;97998.59;;;-2.58;100.00
65276;BME280;51875;49.994;14.052;2022-11-20T01:21:38;97999.56;;;-2.51;100.00
65276;BME280;51875;49.994;14.052;2022-11-20T01:22:54;98001.53;;;-2.34;100.00
65276;BME280;51875;49.994;14.052;2022-11-20T01:24:12;98001.81;;;-2.68;100.00
65276;BME280;51875;49.994;14.052;2022-11-20T01:25:28;98002.63;;;-2.71;100.00
65276;BME280;51875;49.994;14.052;2022-11-20T01:26:46;98002.44;;;-2.80;100.00
65276;BME280;51875;49.994;14.052;2022-11-20T01:28:02;98007.03;;;-2.62;100.00
65276;BME280;51875;49.994;14.052;2022-11-20T01:29:20;98011.25;;;-2.67;100.00
65276;BME280;51875;49.994;14.052;2022-11-20T01:30:36;98005.97;;;-2.73;100.00
65276;BME280;51875;49.994;14.052;2022-11-20T01:31:51;98010.25;;;-2.74;100.00
65276;BME280;51875;49.994;14.052;2022-11-20T01:33:08;98007.75;;;-2.71;100.00
65276;BME280;51875;49.994;14.052;2022-11-20T01:34:23;98006.22;;;-2.61;100.00
65276;BME280;51875;49.994;14.052;2022-11-20T01:35:40;98000.72;;;-2.81;100.00
65276;BME280;51875;49.994;14.052;2022-11-20T01:36:55;98006.38;;;-2.51;100.00
65276;BME280;51875;49.994;14.052;2022-11-20T01:38:11;98000.00;;;-2.74;100.00
65276;BME280;51875;49.994;14.052;2022-11-20T01:39:26;98005.56;;;-2.96;100.00
65276;BME280;51875;49.994;14.052;2022-11-20T01:40:42;98007.56;;;-2.80;100.00
65276;BME280;51875;49.994;14.052;2022-11-20T01:41:58;98004.03;;;-2.87;100.00
65276;BME280;51875;49.994;14.052;2022-11-20T01:43:33;98001.16;;;-2.58;100.00
65276;BME280;51875;49.994;14.052;2022-11-20T01:44:59;97999.75;;;-2.40;100.00
65276;BME280;51875;49.994;14.052;2022-11-20T01:46:19;97998.13;;;-2.33;100.00
65276;BME280;51875;49.994;14.052;2022-11-20T01:47:45;98003.34;;;-2.29;100.00
65276;BME280;51875;49.994;14.052;2022-11-20T01:49:17;97997.25;;;-2.34;100.00
65276;BME280;51875;49.994;14.052;2022-11-20T01:50:35;97989.63;;;-2.31;100.00
65276;BME280;51875;49.994;14.052;2022-11-20T01:51:53;97991.16;;;-2.42;100.00
65276;BME280;51875;49.994;14.052;2022-11-20T01:53:13;97979.44;;;-2.26;100.00
65276;BME280;51875;49.994;14.052;2022-11-20T01:54:40;97981.22;;;-2.20;100.00
65276;BME280;51875;49.994;14.052;2022-11-20T01:56:00;97976.22;;;-2.13;100.00
65276;BME280;51875;49.994;14.052;2022-11-20T01:57:18;97985.47;;;-2.22;100.00
65276;BME280;51875;49.994;14.052;2022-11-20T01:58:38;97980.44;;;-2.18;100.00
65276;BME280;51875;49.994;14.052;2022-11-20T02:00:02;97978.66;;;-2.22;100.00
65276;BME280;51875;49.994;14.052;2022-11-20T02:01:20;97977.03;;;-2.17;100.00
65276;BME280;51875;49.994;14.052;2022-11-20T02:02:36;97969.38;;;-2.14;100.00
65276;BME280;51875;49.994;14.052;2022-11-20T02:03:53;97973.72;;;-2.09;100.00
65276;BME280;51875;49.994;14.052;2022-11-20T02:06:52;97975.31;;;-2.18;100.00
65276;BME280;51875;49.994;14.052;2022-11-20T02:08:11;97972.03;;;-2.06;100.00
65276;BME280;51875;49.994;14.052;2022-11-20T02:09:28;97971.19;;;-2.06;100.00
65276;BME280;51875;49.994;14.052;2022-11-20T02:10:44;97964.38;;;-2.04;100.00
65276;BME280;51875;49.994;14.052;2022-11-20T02:12:00;97961.78;;;-2.06;100.00
65276;BME280;51875;49.994;14.052;2022-11-20T02:13:15;97960.09;;;-2.05;100.00
65276;BME280;51875;49.994;14.052;2022-11-20T02:14:50;97962.22;;;-1.76;100.00
65276;BME280;51875;49.994;14.052;2022-11-20T02:16:13;97961.41;;;-1.72;100.00
65276;BME280;51875;49.994;14.052;2022-11-20T02:17:29;97961.56;;;-2.21;100.00
65276;BME280;51875;49.994;14.052;2022-11-20T02:18:45;97961.97;;;-1.93;100.00
65276;BME280;51875;49.994;14.052;2022-11-20T02:20:02;97956.88;;;-1.90;100.00
65276;BME280;51875;49.994;14.052;2022-11-20T02:21:43;97961.47;;;-2.28;100.00
65276;BME280;51875;49.994;14.052;2022-11-20T02:23:10;97960.00;;;-2.11;100.00
65276;BME280;51875;49.994;14.052;2022-11-20T02:24:27;97964.34;;;-2.07;100.00
65276;BME280;51875;49.994;14.052;2022-11-20T02:25:43;97965.06;;;-2.16;100.00
65276;BME280;51875;49.994;14.052;2022-11-20T02:27:09;97958.03;;;-2.30;100.00
65276;BME280;51875;49.994;14.052;2022-11-20T02:28:25;97962.50;;;-2.16;100.00
65276;BME280;51875;49.994;14.052;2022-11-20T02:29:59;97963.34;;;-2.16;100.00
65276;BME280;51875;49.994;14.052;2022-11-20T02:31:17;97961.25;;;-2.42;100.00
65276;BME280;51875;49.994;14.052;2022-11-20T02:32:35;97964.16;;;-2.20;100.00
65276;BME280;51875;49.994;14.052;2022-11-20T02:33:55;97952.44;;;-2.02;100.00
65276;BME280;51875;49.994;14.052;2022-11-20T02:36:36;97954.31;;;-1.92;100.00
65276;BME280;51875;49.994;14.052;2022-11-20T02:37:56;97947.84;;;-2.23;100.00
65276;BME280;51875;49.994;14.052;2022-11-20T02:39:13;97958.22;;;-2.16;100.00
65276;BME280;51875;49.994;14.052;2022-11-20T02:40:31;97948.88;;;-2.12;100.00
65276;BME280;51875;49.994;14.052;2022-11-20T02:41:47;97946.16;;;-2.21;100.00
65276;BME280;51875;49.994;14.052;2022-11-20T02:43:03;97947.94;;;-2.17;100.00
65276;BME280;51875;49.994;14.052;2022-11-20T02:44:18;97943.00;;;-2.05;100.00
65276;BME280;51875;49.994;14.052;2022-11-20T02:45:34;97941.22;;;-2.09;100.00
65276;BME280;51875;49.994;14.052;2022-11-20T02:46:50;97936.75;;;-2.22;100.00
65276;BME280;51875;49.994;14.052;2022-11-20T02:48:06;97935.41;;;-1.99;100.00
65276;BME280;51875;49.994;14.052;2022-11-20T02:49:22;97936.88;;;-2.15;100.00
65276;BME280;51875;49.994;14.052;2022-11-20T02:50:38;97937.16;;;-1.94;100.00
65276;BME280;51875;49.994;14.052;2022-11-20T02:51:55;97938.81;;;-2.00;100.00
65276;BME280;51875;49.994;14.052;2022-11-20T02:53:11;97939.88;;;-1.82;100.00
65276;BME280;51875;49.994;14.052;2022-11-20T02:54:26;97944.00;;;-1.93;100.00
65276;BME280;51875;49.994;14.052;2022-11-20T02:55:42;97929.50;;;-1.91;100.00
65276;BME280;51875;49.994;14.052;2022-11-20T02:56:58;97936.44;;;-1.82;100.00
65276;BME280;51875;49.994;14.052;2022-11-20T02:58:13;97938.88;;;-1.95;100.00
65276;BME280;51875;49.994;14.052;2022-11-20T02:59:29;97933.81;;;-1.89;100.00
65276;BME280;51875;49.994;14.052;2022-11-20T03:00:44;97936.03;;;-2.14;100.00
65276;BME280;51875;49.994;14.052;2022-11-20T03:02:00;97934.44;;;-2.05;100.00
65276;BME280;51875;49.994;14.052;2022-11-20T03:03:16;97935.06;;;-2.20;100.00
65276;BME280;51875;49.994;14.052;2022-11-20T03:04:31;97936.94;;;-2.10;100.00
65276;BME280;51875;49.994;14.052;2022-11-20T03:05:47;97931.06;;;-2.01;100.00
65276;BME280;51875;49.994;14.052;2022-11-20T03:07:03;97934.56;;;-1.97;100.00
65276;BME280;51875;49.994;14.052;2022-11-20T03:08:19;97931.84;;;-2.08;100.00
65276;BME280;51875;49.994;14.052;2022-11-20T03:09:34;97931.94;;;-1.99;100.00
65276;BME280;51875;49.994;14.052;2022-11-20T03:10:50;97933.72;;;-1.96;100.00
65276;BME280;51875;49.994;14.052;2022-11-20T03:12:06;97933.84;;;-1.87;100.00
65276;BME280;51875;49.994;14.052;2022-11-20T03:13:22;97930.00;;;-2.16;100.00
65276;BME280;51875;49.994;14.052;2022-11-20T03:14:37;97933.47;;;-2.14;100.00
65276;BME280;51875;49.994;14.052;2022-11-20T03:15:53;97928.47;;;-2.04;100.00
65276;BME280;51875;49.994;14.052;2022-11-20T03:17:08;97930.53;;;-1.78;100.00
65276;BME280;51875;49.994;14.052;2022-11-20T03:18:28;97933.00;;;-1.85;100.00
65276;BME280;51875;49.994;14.052;2022-11-20T03:19:44;97925.28;;;-1.88;100.00
65276;BME280;51875;49.994;14.052;2022-11-20T03:20:59;97927.19;;;-1.71;100.00
65276;BME280;51875;49.994;14.052;2022-11-20T03:22:15;97923.00;;;-1.66;100.00
65276;BME280;51875;49.994;14.052;2022-11-20T03:23:32;97920.44;;;-1.66;100.00
65276;BME280;51875;49.994;14.052;2022-11-20T03:24:47;97920.41;;;-1.67;100.00
65276;BME280;51875;49.994;14.052;2022-11-20T03:27:34;97924.72;;;-1.63;100.00
65276;BME280;51875;49.994;14.052;2022-11-20T03:28:58;97929.06;;;-1.58;100.00
65276;BME280;51875;49.994;14.052;2022-11-20T03:30:14;97923.72;;;-1.75;100.00
65276;BME280;51875;49.994;14.052;2022-11-20T03:31:35;97936.47;;;-1.81;100.00
65276;BME280;51875;49.994;14.052;2022-11-20T03:32:53;97933.84;;;-1.86;100.00
65276;BME280;51875;49.994;14.052;2022-11-20T03:34:10;97934.88;;;-1.73;100.00
65276;BME280;51875;49.994;14.052;2022-11-20T03:35:26;97928.16;;;-1.63;100.00
65276;BME280;51875;49.994;14.052;2022-11-20T03:36:42;97934.03;;;-1.70;100.00
65276;BME280;51875;49.994;14.052;2022-11-20T03:37:58;97935.50;;;-1.91;100.00
65276;BME280;51875;49.994;14.052;2022-11-20T03:39:13;97940.69;;;-1.85;100.00
65276;BME280;51875;49.994;14.052;2022-11-20T03:40:29;97938.22;;;-1.77;100.00
65276;BME280;51875;49.994;14.052;2022-11-20T03:41:44;97937.63;;;-1.59;100.00
65276;BME280;51875;49.994;14.052;2022-11-20T03:43:00;97935.13;;;-1.52;100.00
65276;BME280;51875;49.994;14.052;2022-11-20T03:44:16;97933.50;;;-1.44;100.00
65276;BME280;51875;49.994;14.052;2022-11-20T03:45:31;97936.81;;;-1.56;100.00
65276;BME280;51875;49.994;14.052;2022-11-20T03:46:47;97939.47;;;-1.48;100.00
65276;BME280;51875;49.994;14.052;2022-11-20T03:48:03;97936.88;;;-1.48;100.00
65276;BME280;51875;49.994;14.052;2022-11-20T03:49:19;97941.31;;;-1.33;100.00
65276;BME280;51875;49.994;14.052;2022-11-20T03:50:34;97940.50;;;-1.32;100.00
65276;BME280;51875;49.994;14.052;2022-11-20T03:51:50;97941.28;;;-1.36;100.00
65276;BME280;51875;49.994;14.052;2022-11-20T03:53:05;97940.38;;;-1.40;100.00
65276;BME280;51875;49.994;14.052;2022-11-20T03:54:21;97936.00;;;-1.50;100.00
65276;BME280;51875;49.994;14.052;2022-11-20T03:55:37;97948.03;;;-1.46;100.00
65276;BME280;51875;49.994;14.052;2022-11-20T03:56:52;97947.75;;;-1.68;100.00
65276;BME280;51875;49.994;14.052;2022-11-20T03:58:08;97947.03;;;-1.58;100.00
65276;BME280;51875;49.994;14.052;2022-11-20T03:59:24;97946.16;;;-1.60;100.00
65276;BME280;51875;49.994;14.052;2022-11-20T04:00:40;97945.47;;;-1.46;100.00
65276;BME280;51875;49.994;14.052;2022-11-20T04:01:55;97951.66;;;-1.30;100.00
65276;BME280;51875;49.994;14.052;2022-11-20T04:03:11;97937.25;;;-1.16;100.00
65276;BME280;51875;49.994;14.052;2022-11-20T04:04:27;97951.81;;;-1.13;100.00
65276;BME280;51875;49.994;14.052;2022-11-20T04:05:42;97947.63;;;-1.06;100.00
65276;BME280;51875;49.994;14.052;2022-11-20T04:06:58;97947.69;;;-1.00;100.00
65276;BME280;51875;49.994;14.052;2022-11-20T04:08:13;97940.81;;;-1.03;100.00
65276;BME280;51875;49.994;14.052;2022-11-20T04:09:29;97947.22;;;-1.42;100.00
65276;BME280;51875;49.994;14.052;2022-11-20T04:10:44;97947.13;;;-1.51;100.00
65276;BME280;51875;49.994;14.052;2022-11-20T04:12:00;97947.25;;;-1.40;100.00
65276;BME280;51875;49.994;14.052;2022-11-20T04:13:15;97947.41;;;-1.25;100.00
65276;BME280;51875;49.994;14.052;2022-11-20T04:14:31;97944.84;;;-1.25;100.00
65276;BME280;51875;49.994;14.052;2022-11-20T04:15:47;97955.03;;;-1.33;100.00
65276;BME280;51875;49.994;14.052;2022-11-20T04:17:03;97950.97;;;-1.12;100.00
65276;BME280;51875;49.994;14.052;2022-11-20T04:18:19;97948.31;;;-1.21;100.00
65276;BME280;51875;49.994;14.052;2022-11-20T04:19:35;97944.66;;;-1.42;100.00
65276;BME280;51875;49.994;14.052;2022-11-20T04:20:50;97951.63;;;-1.32;100.00
65276;BME280;51875;49.994;14.052;2022-11-20T04:22:06;97950.91;;;-1.20;100.00
65276;BME280;51875;49.994;14.052;2022-11-20T04:23:21;97946.63;;;-1.19;100.00
65276;BME280;51875;49.994;14.052;2022-11-20T04:24:37;97948.50;;;-1.03;100.00
65276;BME280;51875;49.994;14.052;2022-11-20T04:25:53;97948.53;;;-1.04;100.00
65276;BME280;51875;49.994;14.052;2022-11-20T04:27:08;97949.31;;;-1.08;100.00
65276;BME280;51875;49.994;14.052;2022-11-20T04:28:24;97933.09;;;-1.04;100.00
65276;BME280;51875;49.994;14.052;2022-11-20T04:29:40;97936.25;;;-1.29;100.00
65276;BME280;51875;49.994;14.052;2022-11-20T04:31:08;97940.75;;;-1.07;100.00
65276;BME280;51875;49.994;14.052;2022-11-20T04:32:24;97941.53;;;-1.16;100.00
65276;BME280;51875;49.994;14.052;2022-11-20T04:33:40;97928.06;;;-0.92;100.00
65276;BME280;51875;49.994;14.052;2022-11-20T04:34:56;97937.56;;;-0.84;100.00
65276;BME280;51875;49.994;14.052;2022-11-20T04:36:20;97922.16;;;-0.83;100.00
65276;BME280;51875;49.994;14.052;2022-11-20T04:37:35;97927.22;;;-0.92;100.00
65276;BME280;51875;49.994;14.052;2022-11-20T04:39:12;97919.59;;;-0.81;100.00
65276;BME280;51875;49.994;14.052;2022-11-20T04:40:28;97914.53;;;-0.74;100.00
65276;BME280;51875;49.994;14.052;2022-11-20T04:41:44;97916.28;;;-0.69;100.00
65276;BME280;51875;49.994;14.052;2022-11-20T04:42:59;97912.63;;;-0.93;100.00
65276;BME280;51875;49.994;14.052;2022-11-20T04:44:15;97919.22;;;-1.20;100.00
65276;BME280;51875;49.994;14.052;2022-11-20T04:45:31;97913.25;;;-1.19;100.00
65276;BME280;51875;49.994;14.052;2022-11-20T04:46:46;97923.50;;;-1.19;100.00
65276;BME280;51875;49.994;14.052;2022-11-20T04:48:02;97906.44;;;-1.14;100.00
65276;BME280;51875;49.994;14.052;2022-11-20T04:49:17;97900.69;;;-0.90;100.00
65276;BME280;51875;49.994;14.052;2022-11-20T04:50:33;97898.91;;;-0.94;100.00
65276;BME280;51875;49.994;14.052;2022-11-20T04:51:49;97908.34;;;-0.97;100.00
65276;BME280;51875;49.994;14.052;2022-11-20T04:53:04;97907.38;;;-1.06;100.00
65276;BME280;51875;49.994;14.052;2022-11-20T04:54:20;97900.63;;;-0.93;100.00
65276;BME280;51875;49.994;14.052;2022-11-20T04:55:36;97900.66;;;-0.94;100.00
65276;BME280;51875;49.994;14.052;2022-11-20T04:56:51;97903.94;;;-1.08;100.00
65276;BME280;51875;49.994;14.052;2022-11-20T04:58:07;97890.34;;;-0.93;100.00
65276;BME280;51875;49.994;14.052;2022-11-20T04:59:24;97894.72;;;-0.86;100.00
65276;BME280;51875;49.994;14.052;2022-11-20T05:00:39;97888.66;;;-0.92;100.00
65276;BME280;51875;49.994;14.052;2022-11-20T05:01:55;97887.72;;;-1.02;100.00
65276;BME280;51875;49.994;14.052;2022-11-20T05:03:10;97883.59;;;-0.84;100.00
65276;BME280;51875;49.994;14.052;2022-11-20T05:04:26;97891.28;;;-0.86;100.00
65276;BME280;51875;49.994;14.052;2022-11-20T05:05:42;97888.53;;;-1.06;100.00
65276;BME280;51875;49.994;14.052;2022-11-20T05:06:58;97890.25;;;-1.07;100.00
65276;BME280;51875;49.994;14.052;2022-11-20T05:08:13;97892.81;;;-1.07;100.00
65276;BME280;51875;49.994;14.052;2022-11-20T05:09:29;97894.38;;;-1.21;100.00
65276;BME280;51875;49.994;14.052;2022-11-20T05:10:45;97910.66;;;-1.22;100.00
65276;BME280;51875;49.994;14.052;2022-11-20T05:12:01;97900.41;;;-1.16;100.00
65276;BME280;51875;49.994;14.052;2022-11-20T05:13:16;97903.88;;;-1.12;100.00
65276;BME280;51875;49.994;14.052;2022-11-20T05:14:32;97901.31;;;-1.12;100.00
65276;BME280;51875;49.994;14.052;2022-11-20T05:15:48;97896.22;;;-1.06;100.00
65276;BME280;51875;49.994;14.052;2022-11-20T05:17:03;97903.09;;;-1.07;100.00
65276;BME280;51875;49.994;14.052;2022-11-20T05:18:18;97889.47;;;-0.98;100.00
65276;BME280;51875;49.994;14.052;2022-11-20T05:19:34;97888.81;;;-0.74;100.00
65276;BME280;51875;49.994;14.052;2022-11-20T05:20:55;97888.91;;;-0.64;100.00
65276;BME280;51875;49.994;14.052;2022-11-20T05:22:10;97894.94;;;-0.61;100.00
65276;BME280;51875;49.994;14.052;2022-11-20T05:23:26;97898.88;;;-0.98;100.00
65276;BME280;51875;49.994;14.052;2022-11-20T05:24:42;97899.69;;;-1.03;100.00
65276;BME280;51875;49.994;14.052;2022-11-20T05:25:58;97901.38;;;-1.06;100.00
65276;BME280;51875;49.994;14.052;2022-11-20T05:27:14;97906.69;;;-0.91;100.00
65276;BME280;51875;49.994;14.052;2022-11-20T05:28:30;97905.03;;;-0.79;100.00
65276;BME280;51875;49.994;14.052;2022-11-20T05:29:46;97911.19;;;-0.63;100.00
65276;BME280;51875;49.994;14.052;2022-11-20T05:31:13;97904.22;;;-0.77;100.00
65276;BME280;51875;49.994;14.052;2022-11-20T05:32:28;97919.94;;;-1.34;100.00
65276;BME280;51875;49.994;14.052;2022-11-20T05:33:44;97927.59;;;-1.37;100.00
65276;BME280;51875;49.994;14.052;2022-11-20T05:35:00;97930.34;;;-1.20;100.00
65276;BME280;51875;49.994;14.052;2022-11-20T05:36:16;97934.59;;;-1.22;100.00
65276;BME280;51875;49.994;14.052;2022-11-20T05:37:32;97925.41;;;-1.04;100.00
65276;BME280;51875;49.994;14.052;2022-11-20T05:38:47;97928.44;;;-1.39;100.00
65276;BME280;51875;49.994;14.052;2022-11-20T05:40:03;97931.31;;;-1.11;100.00
65276;BME280;51875;49.994;14.052;2022-11-20T05:41:20;97927.59;;;-1.35;100.00
65276;BME280;51875;49.994;14.052;2022-11-20T05:42:35;97927.13;;;-1.00;100.00
65276;BME280;51875;49.994;14.052;2022-11-20T05:43:51;97918.66;;;-0.91;100.00
65276;BME280;51875;49.994;14.052;2022-11-20T05:45:07;97919.59;;;-0.83;100.00
65276;BME280;51875;49.994;14.052;2022-11-20T05:46:23;97919.66;;;-0.74;100.00
65276;BME280;51875;49.994;14.052;2022-11-20T05:47:39;97918.91;;;-0.60;100.00
65276;BME280;51875;49.994;14.052;2022-11-20T05:48:55;97918.81;;;-0.74;100.00
65276;BME280;51875;49.994;14.052;2022-11-20T05:50:10;97914.44;;;-0.81;100.00
65276;BME280;51875;49.994;14.052;2022-11-20T05:51:26;97914.47;;;-0.80;100.00
65276;BME280;51875;49.994;14.052;2022-11-20T05:52:42;97923.56;;;-1.13;100.00
65276;BME280;51875;49.994;14.052;2022-11-20T05:53:57;97916.06;;;-0.94;100.00
65276;BME280;51875;49.994;14.052;2022-11-20T05:55:14;97913.63;;;-0.79;100.00
65276;BME280;51875;49.994;14.052;2022-11-20T05:56:30;97908.25;;;-1.04;100.00
65276;BME280;51875;49.994;14.052;2022-11-20T05:57:45;97904.09;;;-0.89;100.00
65276;BME280;51875;49.994;14.052;2022-11-20T05:59:01;97909.34;;;-0.80;100.00
65276;BME280;51875;49.994;14.052;2022-11-20T06:00:16;97901.50;;;-0.92;100.00
65276;BME280;51875;49.994;14.052;2022-11-20T06:01:32;97905.56;;;-1.16;100.00
65276;BME280;51875;49.994;14.052;2022-11-20T06:02:48;97908.88;;;-1.28;100.00
65276;BME280;51875;49.994;14.052;2022-11-20T06:04:03;97900.53;;;-1.07;100.00
65276;BME280;51875;49.994;14.052;2022-11-20T06:05:19;97894.59;;;-0.98;100.00
65276;BME280;51875;49.994;14.052;2022-11-20T06:06:35;97901.28;;;-1.14;100.00
65276;BME280;51875;49.994;14.052;2022-11-20T06:07:50;97897.88;;;-1.13;100.00
65276;BME280;51875;49.994;14.052;2022-11-20T06:09:06;97894.34;;;-1.26;100.00
65276;BME280;51875;49.994;14.052;2022-11-20T06:10:21;97899.41;;;-1.32;100.00
65276;BME280;51875;49.994;14.052;2022-11-20T06:11:37;97888.59;;;-0.98;100.00
65276;BME280;51875;49.994;14.052;2022-11-20T06:12:53;97886.97;;;-0.87;100.00
65276;BME280;51875;49.994;14.052;2022-11-20T06:14:08;97894.56;;;-1.03;100.00
65276;BME280;51875;49.994;14.052;2022-11-20T06:15:24;97901.28;;;-1.14;100.00
65276;BME280;51875;49.994;14.052;2022-11-20T06:16:40;97908.19;;;-1.08;100.00
65276;BME280;51875;49.994;14.052;2022-11-20T06:17:56;97907.47;;;-0.96;100.00
65276;BME280;51875;49.994;14.052;2022-11-20T06:19:11;97895.63;;;-0.79;100.00
65276;BME280;51875;49.994;14.052;2022-11-20T06:20:27;97905.81;;;-0.91;100.00
65276;BME280;51875;49.994;14.052;2022-11-20T06:21:42;97908.44;;;-0.83;100.00
65276;BME280;51875;49.994;14.052;2022-11-20T06:22:58;97901.66;;;-0.74;100.00
65276;BME280;51875;49.994;14.052;2022-11-20T06:24:13;97900.00;;;-0.67;100.00
65276;BME280;51875;49.994;14.052;2022-11-20T06:25:29;97900.94;;;-0.59;100.00
65276;BME280;51875;49.994;14.052;2022-11-20T06:26:45;97897.50;;;-0.56;100.00
65276;BME280;51875;49.994;14.052;2022-11-20T06:28:00;97901.84;;;-0.52;100.00
65276;BME280;51875;49.994;14.052;2022-11-20T06:29:16;97908.69;;;-0.52;100.00
65276;BME280;51875;49.994;14.052;2022-11-20T06:30:32;97906.81;;;-0.75;100.00
65276;BME280;51875;49.994;14.052;2022-11-20T06:31:48;97904.31;;;-0.64;100.00
65276;BME280;51875;49.994;14.052;2022-11-20T06:33:03;97899.22;;;-0.60;100.00
65276;BME280;51875;49.994;14.052;2022-11-20T06:34:19;97893.97;;;-0.71;100.00
65276;BME280;51875;49.994;14.052;2022-11-20T06:35:34;97884.97;;;-1.19;100.00
65276;BME280;51875;49.994;14.052;2022-11-20T06:36:50;97880.59;;;-1.30;100.00
65276;BME280;51875;49.994;14.052;2022-11-20T06:38:06;97868.50;;;-1.42;100.00
65276;BME280;51875;49.994;14.052;2022-11-20T06:39:21;97860.25;;;-1.09;100.00
65276;BME280;51875;49.994;14.052;2022-11-20T06:40:40;97860.47;;;-0.81;100.00
65276;BME280;51875;49.994;14.052;2022-11-20T06:41:56;97854.47;;;-0.83;100.00